Estación Meteorológica Peña el Pijo (Robertgarden) [ 02/03/23 03:23:16 CET ]

Fecha Hora Presion(HPa) Temp (°C) Humedad % Rocio (°C) Viento ( m/s) Direccion Lluvia 1Hora(mm) Lluvia 24H(mm) LLuvia Total(mm)
2010-Aug-21 01:01:19 1020.000 15.9 85 13.4         152.29
2010-Aug-21 02:01:13 1020.200 15.3 88 13.3         152.29
2010-Aug-21 03:01:16 1019.900 14.9 89 13.1         152.29
2010-Aug-21 04:01:17 1019.700 14.3 90 12.7         152.29
2010-Aug-21 05:01:15 1019.700 13.6 91 12.2         152.29
2010-Aug-21 06:01:19 1019.800 13.0 91 11.6         152.29
2010-Aug-21 07:01:18 1019.900 12.3 92 11.0         152.29
2010-Aug-21 08:01:17 1020.600 11.9 92 10.6         152.29
2010-Aug-21 09:01:15 1020.700 16.3 91 14.9         152.29
2010-Aug-21 10:01:15 1020.800 22.3 71 16.8         152.29
2010-Aug-21 11:01:16 1021.000 26.9 53 16.5         152.29
2010-Aug-21 12:01:16 1021.100 30.4 35 13.1 1.4 NE     152.29
2010-Aug-21 13:01:11 1020.800 31.3 31 12.1         152.29
2010-Aug-21 14:01:13 1020.400 32.2 28 11.3         152.29
2010-Aug-21 15:01:16 1020.300 33.2 30 13.4         152.29
2010-Aug-21 16:01:12 1019.800 32.7 34 14.7         152.29
2010-Aug-21 17:01:43 1019.300 32.8 33 14.3         152.29
2010-Aug-21 18:01:36 1019.100 33.3 32 14.3         152.29
2010-Aug-21 19:01:39 1018.800 31.9 35 14.4         152.29
2010-Aug-21 20:01:39 1018.800 27.9 44 14.5         152.29
2010-Aug-21 21:01:17 1019.000 24.8 55 15.1         152.29
2010-Aug-21 22:01:13 1019.800 22.9 62 15.2         152.29
2010-Aug-21 23:01:13 1020.300 20.8 70 15.1         152.29

Temperatura Máxima:33°    Temperatura Mínima:11°
Presión Máxima:1021.100 Hpa    Presión Mínima:1018.800 Hpa


Volver